createdAt,value
2018-01-05T00:00:26.110Z,0
2018-01-05T00:01:37.378Z,0
2018-01-05T00:02:47.560Z,0
2018-01-05T00:03:57.753Z,0
2018-01-05T00:05:07.970Z,0
2018-01-05T00:06:18.175Z,0
2018-01-05T00:07:28.499Z,0
2018-01-05T00:08:38.737Z,0
2018-01-05T00:09:49.013Z,0
2018-01-05T00:10:59.165Z,0
2018-01-05T00:12:09.318Z,0
2018-01-05T00:13:19.555Z,0
2018-01-05T00:14:29.460Z,0
2018-01-05T00:15:39.600Z,0
2018-01-05T00:16:49.725Z,0
2018-01-05T00:17:59.840Z,0
2018-01-05T00:19:10.134Z,0
2018-01-05T00:20:20.086Z,0
2018-01-05T00:21:30.210Z,0
2018-01-05T00:22:40.410Z,0
2018-01-05T00:23:50.649Z,0
2018-01-05T00:25:00.841Z,0
2018-01-05T00:26:11.043Z,0
2018-01-05T00:27:21.276Z,0
2018-01-05T00:28:31.444Z,0
2018-01-05T00:29:41.688Z,0
2018-01-05T00:30:52.838Z,0
2018-01-05T00:32:02.957Z,0
2018-01-05T00:33:13.093Z,0
2018-01-05T00:34:23.235Z,0
2018-01-05T00:35:33.355Z,0
2018-01-05T00:36:43.152Z,0
2018-01-05T00:37:53.044Z,0
2018-01-05T00:39:03.199Z,0
2018-01-05T00:40:13.332Z,0
2018-01-05T00:41:23.497Z,0
2018-01-05T00:42:33.632Z,0
2018-01-05T00:43:43.791Z,0
2018-01-05T00:44:54.022Z,0
2018-01-05T00:46:04.227Z,0
2018-01-05T00:47:14.156Z,0
2018-01-05T00:48:24.307Z,0
2018-01-05T00:49:34.522Z,0
2018-01-05T00:50:44.682Z,0
2018-01-05T00:51:55.048Z,0
2018-01-05T00:53:05.154Z,0
2018-01-05T00:54:15.317Z,0
2018-01-05T00:55:25.795Z,0
2018-01-05T00:56:35.955Z,0
2018-01-05T00:57:46.105Z,0
2018-01-05T00:58:56.257Z,0
2018-01-05T01:00:06.502Z,0
2018-01-05T01:01:16.731Z,0
2018-01-05T01:02:26.937Z,0
2018-01-05T01:03:37.094Z,0
2018-01-05T01:04:47.320Z,0
2018-01-05T01:05:57.289Z,0
2018-01-05T01:07:07.419Z,0
2018-01-05T01:08:17.606Z,0
2018-01-05T01:09:27.778Z,0
2018-01-05T01:10:37.985Z,0
2018-01-05T01:11:47.886Z,0
2018-01-05T01:12:58.032Z,0
2018-01-05T01:14:08.175Z,0
2018-01-05T01:15:18.412Z,0
2018-01-05T01:16:28.605Z,0
2018-01-05T01:17:38.868Z,0
2018-01-05T01:18:49.075Z,0
2018-01-05T01:19:59.247Z,0
2018-01-05T01:21:09.495Z,0
2018-01-05T01:22:19.675Z,0
2018-01-05T01:23:29.902Z,0
2018-01-05T01:24:40.078Z,0
2018-01-05T01:25:50.592Z,0
2018-01-05T01:27:00.770Z,0
2018-01-05T01:28:10.905Z,0
2018-01-05T01:29:21.076Z,0
2018-01-05T01:30:31.216Z,0
2018-01-05T01:31:41.369Z,0
2018-01-05T01:32:51.273Z,0
2018-01-05T01:34:01.460Z,0
2018-01-05T01:35:11.645Z,0
2018-01-05T01:36:21.848Z,0
2018-01-05T01:37:32.046Z,0
2018-01-05T01:38:41.985Z,0
2018-01-05T01:39:52.099Z,0
2018-01-05T01:41:02.271Z,0
2018-01-05T01:42:12.556Z,0
2018-01-05T01:43:22.823Z,0
2018-01-05T01:44:32.585Z,0
2018-01-05T01:45:42.742Z,0
2018-01-05T01:46:52.864Z,0
2018-01-05T01:48:03.342Z,0
2018-01-05T01:49:13.484Z,0
2018-01-05T01:50:23.640Z,0
2018-01-05T01:51:33.776Z,0
2018-01-05T01:52:43.919Z,0
2018-01-05T01:53:54.156Z,0
2018-01-05T01:55:04.433Z,0
2018-01-05T01:56:14.628Z,0
2018-01-05T01:57:24.757Z,0
2018-01-05T01:58:34.868Z,0
2018-01-05T01:59:45.014Z,0
2018-01-05T02:00:55.199Z,0
2018-01-05T02:02:06.298Z,0
2018-01-05T02:03:16.526Z,0
2018-01-05T02:04:26.818Z,0
2018-01-05T02:05:36.956Z,0
2018-01-05T02:06:47.326Z,0
2018-01-05T02:07:57.509Z,0
2018-01-05T02:09:07.768Z,0
2018-01-05T02:10:17.953Z,0
2018-01-05T02:11:28.082Z,0
2018-01-05T02:12:38.012Z,0
2018-01-05T02:13:48.129Z,0
2018-01-05T02:14:58.239Z,0
2018-01-05T02:16:08.413Z,0
2018-01-05T02:17:18.600Z,0
2018-01-05T02:18:28.785Z,0
2018-01-05T02:19:38.900Z,0
2018-01-05T02:20:49.027Z,0
2018-01-05T02:21:59.168Z,0
2018-01-05T02:23:09.339Z,0
2018-01-05T02:24:19.485Z,0
2018-01-05T02:25:29.645Z,0
2018-01-05T02:26:39.503Z,0
2018-01-05T02:27:49.646Z,0
2018-01-05T02:28:59.520Z,0
2018-01-05T02:30:09.654Z,0
2018-01-05T02:31:19.909Z,0
2018-01-05T02:32:30.066Z,0
2018-01-05T02:33:40.289Z,0
2018-01-05T02:34:50.538Z,0
2018-01-05T02:36:00.844Z,0
2018-01-05T02:37:11.088Z,0
2018-01-05T02:38:21.251Z,0
2018-01-05T02:39:31.579Z,0
2018-01-05T02:40:41.707Z,0
2018-01-05T02:41:51.842Z,0
2018-01-05T02:43:02.071Z,0
2018-01-05T02:44:12.240Z,0
2018-01-05T02:45:22.396Z,0
2018-01-05T02:46:32.579Z,0
2018-01-05T02:47:42.722Z,0
2018-01-05T02:48:52.849Z,0
2018-01-05T02:50:02.711Z,0
2018-01-05T02:51:12.841Z,0
2018-01-05T02:52:22.999Z,0
2018-01-05T02:53:33.188Z,0
2018-01-05T02:54:43.330Z,0
2018-01-05T02:55:53.210Z,0
2018-01-05T02:57:03.353Z,0
2018-01-05T02:58:13.576Z,0
2018-01-05T02:59:23.708Z,0
2018-01-05T03:00:33.958Z,0
2018-01-05T03:01:44.254Z,0
2018-01-05T03:02:54.386Z,0
2018-01-05T03:04:04.638Z,0
2018-01-05T03:05:14.868Z,0
2018-01-05T03:06:25.007Z,0
2018-01-05T03:07:35.132Z,0
2018-01-05T03:08:45.275Z,0
2018-01-05T03:09:55.405Z,0
2018-01-05T03:11:05.540Z,0
2018-01-05T03:12:15.734Z,0
2018-01-05T03:13:25.871Z,0
2018-01-05T03:14:36.087Z,0
2018-01-05T03:15:46.223Z,0
2018-01-05T03:16:56.357Z,0
2018-01-05T03:18:06.495Z,0
2018-01-05T03:19:16.683Z,0
2018-01-05T03:20:26.815Z,0
2018-01-05T03:21:36.941Z,0
2018-01-05T03:22:47.092Z,0
2018-01-05T03:23:57.240Z,0
2018-01-05T03:25:07.374Z,0
2018-01-05T03:26:16.973Z,0
2018-01-05T03:27:26.817Z,0
2018-01-05T03:28:36.951Z,0
2018-01-05T03:29:47.183Z,0
2018-01-05T03:30:57.427Z,0
2018-01-05T03:32:07.576Z,0
2018-01-05T03:33:17.821Z,0
2018-01-05T03:34:28.030Z,0
2018-01-05T03:35:38.159Z,0
2018-01-05T03:36:48.325Z,0
2018-01-05T03:37:58.482Z,0
2018-01-05T03:39:08.368Z,0
2018-01-05T03:40:18.539Z,0
2018-01-05T03:41:28.722Z,0
2018-01-05T03:42:38.838Z,0
2018-01-05T03:43:48.943Z,0
2018-01-05T03:44:59.089Z,0
2018-01-05T03:46:09.018Z,0
2018-01-05T03:47:19.121Z,0
2018-01-05T03:48:29.266Z,0
2018-01-05T03:49:40.368Z,0
2018-01-05T03:50:50.511Z,0
2018-01-05T03:52:00.277Z,0
2018-01-05T03:53:10.548Z,0
2018-01-05T03:54:20.724Z,0
2018-01-05T03:55:31.053Z,0
2018-01-05T03:56:41.271Z,0
2018-01-05T03:57:51.138Z,0
2018-01-05T03:59:01.326Z,0
2018-01-05T04:00:11.536Z,0
2018-01-05T04:01:21.689Z,0
2018-01-05T04:02:31.921Z,0
2018-01-05T04:03:42.266Z,0
2018-01-05T04:04:52.383Z,0
2018-01-05T04:06:02.493Z,0
2018-01-05T04:07:12.625Z,0
2018-01-05T04:08:22.734Z,0
2018-01-05T04:09:32.883Z,0
2018-01-05T04:10:43.015Z,0
2018-01-05T04:11:53.165Z,0
2018-01-05T04:13:03.442Z,0
2018-01-05T04:14:13.545Z,0
2018-01-05T04:15:23.762Z,0
2018-01-05T04:16:33.683Z,0
2018-01-05T04:17:43.803Z,0
2018-01-05T04:18:53.961Z,0
2018-01-05T04:20:04.130Z,0
2018-01-05T04:21:14.388Z,0
2018-01-05T04:22:24.548Z,0
2018-01-05T04:23:34.726Z,0
2018-01-05T04:24:44.838Z,0
2018-01-05T04:25:54.970Z,0
2018-01-05T04:27:05.184Z,0
2018-01-05T04:28:15.335Z,0
2018-01-05T04:29:25.595Z,0
2018-01-05T04:30:35.738Z,0
2018-01-05T04:31:45.944Z,0
2018-01-05T04:32:56.076Z,0
2018-01-05T04:34:06.224Z,0
2018-01-05T04:35:16.358Z,0
2018-01-05T04:36:26.467Z,0
2018-01-05T04:37:36.660Z,0
2018-01-05T04:38:46.759Z,0
2018-01-05T04:39:56.954Z,0
2018-01-05T04:41:07.099Z,0
2018-01-05T04:42:17.226Z,0
2018-01-05T04:43:27.385Z,0
2018-01-05T04:44:37.544Z,0
2018-01-05T04:45:47.667Z,0
2018-01-05T04:46:57.837Z,0
2018-01-05T04:48:08.016Z,0
2018-01-05T04:49:18.191Z,0
2018-01-05T04:50:28.388Z,0
2018-01-05T04:51:38.566Z,0
2018-01-05T04:52:48.726Z,0
2018-01-05T04:53:58.839Z,0
2018-01-05T04:55:08.953Z,0
2018-01-05T04:56:19.112Z,0
2018-01-05T04:57:29.342Z,0
2018-01-05T04:58:39.573Z,0
2018-01-05T04:59:49.824Z,0
2018-01-05T05:01:00.038Z,0
2018-01-05T05:02:10.171Z,0
2018-01-05T05:03:20.361Z,0
2018-01-05T05:04:30.464Z,0
2018-01-05T05:05:40.607Z,0
2018-01-05T05:06:50.738Z,0
2018-01-05T05:08:00.907Z,0
2018-01-05T05:09:11.070Z,0
2018-01-05T05:10:21.434Z,0
2018-01-05T05:11:31.572Z,0
2018-01-05T05:12:41.811Z,0
2018-01-05T05:13:51.948Z,0
2018-01-05T05:15:02.097Z,0
2018-01-05T05:16:12.305Z,0
2018-01-05T05:17:22.455Z,0
2018-01-05T05:18:32.564Z,0
2018-01-05T05:19:42.667Z,0
2018-01-05T05:20:52.809Z,0
2018-01-05T05:22:02.956Z,0
2018-01-05T05:23:13.087Z,0
2018-01-05T05:24:23.193Z,0
2018-01-05T05:25:33.344Z,0
2018-01-05T05:26:43.106Z,0
2018-01-05T05:27:53.232Z,0
2018-01-05T05:29:03.344Z,0
2018-01-05T05:30:13.461Z,0
2018-01-05T05:31:23.587Z,0
2018-01-05T05:32:33.743Z,0
2018-01-05T05:33:43.911Z,0
2018-01-05T05:34:53.527Z,0
2018-01-05T05:36:03.295Z,0
2018-01-05T05:37:13.552Z,0
2018-01-05T05:38:23.715Z,0
2018-01-05T05:39:33.627Z,0
2018-01-05T05:40:43.762Z,0
2018-01-05T05:41:53.686Z,0
2018-01-05T05:43:03.837Z,0
2018-01-05T05:44:13.961Z,0
2018-01-05T05:45:24.116Z,0
2018-01-05T05:46:35.290Z,0
2018-01-05T05:47:45.481Z,0
2018-01-05T05:48:55.749Z,0
2018-01-05T05:50:05.601Z,0
2018-01-05T05:51:15.761Z,0
2018-01-05T05:52:26.008Z,0
2018-01-05T05:53:35.864Z,0
2018-01-05T05:54:46.027Z,0
2018-01-05T05:55:56.180Z,0
2018-01-05T05:57:06.318Z,0
2018-01-05T05:58:16.565Z,0
2018-01-05T05:59:26.489Z,0
2018-01-05T06:00:36.374Z,0
2018-01-05T06:01:47.733Z,0
2018-01-05T06:02:57.935Z,0
2018-01-05T06:04:07.895Z,0
2018-01-05T06:05:18.040Z,0
2018-01-05T06:06:28.204Z,0
2018-01-05T06:07:38.328Z,0
2018-01-05T06:08:48.519Z,0
2018-01-05T06:09:58.204Z,0
2018-01-05T06:11:08.123Z,0
2018-01-05T06:12:18.293Z,0
2018-01-05T06:13:28.428Z,0
2018-01-05T06:14:38.631Z,0
2018-01-05T06:15:48.847Z,0
2018-01-05T06:16:58.973Z,0
2018-01-05T06:18:09.126Z,0
2018-01-05T06:19:19.252Z,0
2018-01-05T06:20:29.380Z,0
2018-01-05T06:21:39.264Z,0
2018-01-05T06:22:49.389Z,0
2018-01-05T06:23:59.572Z,0
2018-01-05T06:25:09.833Z,0
2018-01-05T06:26:19.703Z,0
2018-01-05T06:27:29.857Z,0
2018-01-05T06:28:39.981Z,0
2018-01-05T06:29:50.140Z,0
2018-01-05T06:31:00.287Z,0
2018-01-05T06:32:10.471Z,0
2018-01-05T06:33:20.661Z,0
2018-01-05T06:34:30.819Z,0
2018-01-05T06:35:41.111Z,0
2018-01-05T06:36:51.292Z,0
2018-01-05T06:38:01.676Z,0
2018-01-05T06:39:12.028Z,0
2018-01-05T06:40:22.185Z,0
2018-01-05T06:41:32.131Z,0
2018-01-05T06:42:42.541Z,0
2018-01-05T06:43:52.925Z,0
2018-01-05T06:45:03.484Z,0
2018-01-05T06:46:15.507Z,0
2018-01-05T06:47:26.393Z,0
2018-01-05T06:48:36.759Z,0
2018-01-05T06:49:47.093Z,0
2018-01-05T06:50:57.194Z,0
2018-01-05T06:52:07.322Z,0
2018-01-05T06:53:17.484Z,0
2018-01-05T06:54:27.621Z,0
2018-01-05T06:55:37.979Z,0
2018-01-05T06:56:48.303Z,0
2018-01-05T06:57:58.428Z,0
2018-01-05T06:59:08.801Z,0
2018-01-05T07:00:18.943Z,0
2018-01-05T07:01:29.088Z,0
2018-01-05T07:02:39.225Z,0
2018-01-05T07:03:49.806Z,0
2018-01-05T07:04:59.968Z,0
2018-01-05T07:06:10.300Z,0
2018-01-05T07:07:20.645Z,0
2018-01-05T07:08:31.050Z,0
2018-01-05T07:09:41.649Z,0
2018-01-05T07:10:52.974Z,0
2018-01-05T07:12:03.114Z,0
2018-01-05T07:13:13.715Z,0
2018-01-05T07:14:23.920Z,5
2018-01-05T07:15:34.545Z,5
2018-01-05T07:16:44.418Z,5
2018-01-05T07:17:54.553Z,5
2018-01-05T07:19:04.745Z,5
2018-01-05T07:20:14.908Z,5
2018-01-05T07:21:25.072Z,10
2018-01-05T07:22:35.210Z,10
2018-01-05T07:23:45.424Z,10
2018-01-05T07:24:55.550Z,15
2018-01-05T07:26:05.738Z,15
2018-01-05T07:27:15.904Z,20
2018-01-05T07:28:26.044Z,20
2018-01-05T07:29:36.301Z,20
2018-01-05T07:30:46.446Z,25
2018-01-05T07:31:56.605Z,25
2018-01-05T07:33:06.561Z,25
2018-01-05T07:34:16.728Z,30
2018-01-05T07:35:26.953Z,30
2018-01-05T07:36:37.153Z,35
2018-01-05T07:37:47.429Z,35
2018-01-05T07:38:57.583Z,35
2018-01-05T07:40:07.879Z,35
2018-01-05T07:41:17.744Z,40
2018-01-05T07:42:27.906Z,40
2018-01-05T07:43:38.042Z,45
2018-01-05T07:44:47.902Z,45
2018-01-05T07:45:58.075Z,45
2018-01-05T07:47:08.294Z,45
2018-01-05T07:48:18.445Z,40
2018-01-05T07:49:28.711Z,40
2018-01-05T07:50:38.882Z,40
2018-01-05T07:51:49.033Z,35
2018-01-05T07:52:59.319Z,35
2018-01-05T07:54:09.523Z,35
2018-01-05T07:55:19.734Z,35
2018-01-05T07:56:29.611Z,35
2018-01-05T07:57:39.743Z,35
2018-01-05T07:58:49.885Z,30
2018-01-05T08:00:00.117Z,25
2018-01-05T08:01:10.380Z,25
2018-01-05T08:02:20.537Z,25
2018-01-05T08:03:30.786Z,25
2018-01-05T08:04:40.955Z,25
2018-01-05T08:05:51.129Z,35
2018-01-05T08:07:01.272Z,45
2018-01-05T08:08:11.440Z,45
2018-01-05T08:09:21.596Z,50
2018-01-05T08:10:31.545Z,50
2018-01-05T08:11:41.778Z,55
2018-01-05T08:12:51.953Z,60
2018-01-05T08:14:02.164Z,65
2018-01-05T08:15:12.333Z,75
2018-01-05T08:16:22.464Z,75
2018-01-05T08:17:32.591Z,90
2018-01-05T08:18:42.469Z,100
2018-01-05T08:19:52.596Z,120
2018-01-05T08:21:02.712Z,135
2018-01-05T08:22:12.862Z,140
2018-01-05T08:23:23.107Z,140
2018-01-05T08:24:33.375Z,140
2018-01-05T08:25:43.312Z,145
2018-01-05T08:26:53.487Z,165
2018-01-05T08:28:03.669Z,175
2018-01-05T08:29:13.559Z,170
2018-01-05T08:30:23.692Z,160
2018-01-05T08:31:33.916Z,180
2018-01-05T08:32:44.086Z,200
2018-01-05T08:33:54.198Z,210
2018-01-05T08:35:04.363Z,210
2018-01-05T08:36:14.535Z,215
2018-01-05T08:37:24.514Z,205
2018-01-05T08:38:34.676Z,170
2018-01-05T08:39:44.811Z,170
2018-01-05T08:40:54.966Z,155
2018-01-05T08:42:05.126Z,155
2018-01-05T08:43:15.360Z,145
2018-01-05T08:44:25.300Z,145
2018-01-05T08:45:35.442Z,160
2018-01-05T08:46:45.069Z,155
2018-01-05T08:47:55.279Z,120
2018-01-05T08:49:05.425Z,115
2018-01-05T08:50:15.323Z,115
2018-01-05T08:51:25.544Z,130
2018-01-05T08:52:35.814Z,150
2018-01-05T08:53:45.687Z,170
2018-01-05T08:54:55.814Z,205
2018-01-05T08:56:05.893Z,220
2018-01-05T08:57:16.037Z,210
2018-01-05T08:58:26.381Z,195
2018-01-05T08:59:36.562Z,195
2018-01-05T09:00:46.751Z,185
2018-01-05T09:01:56.953Z,210
2018-01-05T09:03:07.143Z,245
2018-01-05T09:04:17.391Z,245
2018-01-05T09:05:27.552Z,230
2018-01-05T09:06:37.702Z,235
2018-01-05T09:07:47.822Z,245
2018-01-05T09:08:58.011Z,280
2018-01-05T09:10:08.334Z,280
2018-01-05T09:11:18.347Z,255
2018-01-05T09:12:28.469Z,260
2018-01-05T09:13:38.768Z,295
2018-01-05T09:14:49.028Z,305
2018-01-05T09:15:59.159Z,310
2018-01-05T09:17:09.410Z,290
2018-01-05T09:18:19.707Z,270
2018-01-05T09:19:30.002Z,280
2018-01-05T09:20:39.856Z,280
2018-01-05T09:21:50.063Z,280
2018-01-05T09:23:00.196Z,290
2018-01-05T09:24:10.408Z,290
2018-01-05T09:25:20.247Z,280
2018-01-05T09:26:30.405Z,300
2018-01-05T09:27:40.536Z,335
2018-01-05T09:28:50.689Z,350
2018-01-05T09:30:00.862Z,265
2018-01-05T09:31:11.089Z,170
2018-01-05T09:32:21.298Z,135
2018-01-05T09:33:31.628Z,125
2018-01-05T09:34:41.829Z,135
2018-01-05T09:35:52.025Z,145
2018-01-05T09:37:02.292Z,140
2018-01-05T09:38:12.528Z,150
2018-01-05T09:39:22.652Z,160
2018-01-05T09:40:32.782Z,170
2018-01-05T09:41:42.712Z,165
2018-01-05T09:42:52.852Z,165
2018-01-05T09:44:04.987Z,180
2018-01-05T09:45:14.886Z,155
2018-01-05T09:46:24.674Z,170
2018-01-05T09:47:34.792Z,190
2018-01-05T09:48:44.959Z,200
2018-01-05T09:49:54.499Z,190
2018-01-05T09:51:04.769Z,210
2018-01-05T09:52:14.922Z,255
2018-01-05T09:53:25.131Z,305
2018-01-05T09:54:35.253Z,345
2018-01-05T09:55:45.389Z,330
2018-01-05T09:56:55.519Z,345
2018-01-05T09:58:05.688Z,350
2018-01-05T09:59:15.825Z,350
2018-01-05T10:00:25.973Z,430
2018-01-05T10:01:37.062Z,400
2018-01-05T10:02:47.186Z,370
2018-01-05T10:03:57.077Z,365
2018-01-05T10:05:07.222Z,340
2018-01-05T10:06:17.400Z,310
2018-01-05T10:07:27.538Z,310
2018-01-05T10:08:37.682Z,345
2018-01-05T10:09:47.855Z,410
2018-01-05T10:10:58.207Z,570
2018-01-05T10:12:08.419Z,840
2018-01-05T10:13:18.656Z,985
2018-01-05T10:14:28.834Z,995
2018-01-05T10:15:38.973Z,875
2018-01-05T10:16:48.866Z,890
2018-01-05T10:18:00.078Z,945
2018-01-05T10:19:10.274Z,975
2018-01-05T10:20:20.470Z,980
2018-01-05T10:21:30.752Z,915
2018-01-05T10:22:40.884Z,955
2018-01-05T10:23:51.104Z,930
2018-01-05T10:25:01.254Z,885
2018-01-05T10:26:11.504Z,805
2018-01-05T10:27:21.849Z,670
2018-01-05T10:28:32.061Z,800
2018-01-05T10:29:42.295Z,910
2018-01-05T10:30:52.444Z,1050
2018-01-05T10:32:02.613Z,1040
2018-01-05T10:33:12.792Z,940
2018-01-05T10:34:23.007Z,1135
2018-01-05T10:35:33.164Z,1170
2018-01-05T10:36:43.308Z,1245
2018-01-05T10:37:53.230Z,1130
2018-01-05T10:39:03.397Z,1260
2018-01-05T10:40:13.658Z,1110
2018-01-05T10:41:23.560Z,1185
2018-01-05T10:42:33.463Z,1195
2018-01-05T10:43:43.627Z,1100
2018-01-05T10:44:53.790Z,930
2018-01-05T10:46:03.715Z,1140
2018-01-05T10:47:13.859Z,1175
2018-01-05T10:48:24.031Z,1205
2018-01-05T10:49:33.816Z,1210
2018-01-05T10:50:44.024Z,1305
2018-01-05T10:51:54.170Z,1305
2018-01-05T10:53:04.298Z,1240
2018-01-05T10:54:14.515Z,1350
2018-01-05T10:55:24.696Z,1390
2018-01-05T10:56:34.919Z,1310
2018-01-05T10:57:45.075Z,1200
2018-01-05T10:58:55.244Z,1125
2018-01-05T11:00:05.419Z,1105
2018-01-05T11:01:15.708Z,1015
2018-01-05T11:02:25.863Z,1020
2018-01-05T11:03:36.005Z,1025
2018-01-05T11:04:46.162Z,1040
2018-01-05T11:05:56.329Z,1065
2018-01-05T11:07:06.518Z,1090
2018-01-05T11:08:16.692Z,995
2018-01-05T11:09:26.864Z,980
2018-01-05T11:10:37.111Z,520
2018-01-05T11:11:47.252Z,1215
2018-01-05T11:12:57.472Z,1170
2018-01-05T11:14:07.670Z,1050
2018-01-05T11:15:17.947Z,930
2018-01-05T11:16:28.246Z,920
2018-01-05T11:17:38.470Z,1005
2018-01-05T11:18:48.606Z,1100
2018-01-05T11:19:58.749Z,780
2018-01-05T11:21:08.984Z,810
2018-01-05T11:22:19.252Z,950
2018-01-05T11:23:29.407Z,975
2018-01-05T11:24:39.712Z,875
2018-01-05T11:25:49.985Z,435
2018-01-05T11:26:59.883Z,930
2018-01-05T11:28:10.045Z,310
2018-01-05T11:29:20.195Z,300
2018-01-05T11:30:30.291Z,300
2018-01-05T11:31:40.228Z,295
2018-01-05T11:32:50.397Z,825
2018-01-05T11:34:00.579Z,670
2018-01-05T11:35:10.369Z,575
2018-01-05T11:36:20.519Z,715
2018-01-05T11:37:30.709Z,570
2018-01-05T11:38:40.908Z,265
2018-01-05T11:39:51.061Z,265
2018-01-05T11:41:01.318Z,340
2018-01-05T11:42:11.657Z,440
2018-01-05T11:43:21.806Z,435
2018-01-05T11:44:31.992Z,570
2018-01-05T11:45:42.141Z,460
2018-01-05T11:46:52.305Z,410
2018-01-05T11:48:02.478Z,290
2018-01-05T11:49:12.617Z,275
2018-01-05T11:50:22.732Z,275
2018-01-05T11:51:32.891Z,265
2018-01-05T11:52:43.100Z,280
2018-01-05T11:53:53.320Z,300
2018-01-05T11:55:03.238Z,285
2018-01-05T11:56:13.389Z,380
2018-01-05T11:57:23.548Z,370
2018-01-05T11:58:33.781Z,475
2018-01-05T11:59:43.920Z,535
2018-01-05T12:00:54.071Z,430
2018-01-05T12:02:04.286Z,460
2018-01-05T12:03:14.659Z,565
2018-01-05T12:04:24.871Z,535
2018-01-05T12:05:35.057Z,450
2018-01-05T12:06:45.222Z,405
2018-01-05T12:07:55.420Z,470
2018-01-05T12:09:05.662Z,480
2018-01-05T12:10:15.896Z,410
2018-01-05T12:11:26.048Z,325
2018-01-05T12:12:36.182Z,345
2018-01-05T12:13:46.306Z,425
2018-01-05T12:14:56.459Z,500
2018-01-05T12:16:06.609Z,425
2018-01-05T12:17:16.485Z,355
2018-01-05T12:18:26.623Z,305
2018-01-05T12:19:36.758Z,235
2018-01-05T12:20:46.909Z,280
2018-01-05T12:21:56.857Z,285
2018-01-05T12:23:06.868Z,275
2018-01-05T12:24:18.006Z,270
2018-01-05T12:25:28.349Z,240
2018-01-05T12:26:38.608Z,225
2018-01-05T12:27:48.830Z,225
2018-01-05T12:28:59.043Z,235
2018-01-05T12:30:09.204Z,255
2018-01-05T12:31:19.404Z,265
2018-01-05T12:32:29.642Z,260
2018-01-05T12:33:39.898Z,260
2018-01-05T12:34:50.126Z,255
2018-01-05T12:36:00.437Z,255
2018-01-05T12:37:10.600Z,270
2018-01-05T12:38:20.835Z,280
2018-01-05T12:39:31.006Z,280
2018-01-05T12:40:40.982Z,270
2018-01-05T12:41:51.111Z,270
2018-01-05T12:43:01.355Z,275
2018-01-05T12:44:11.284Z,280
2018-01-05T12:45:21.438Z,315
2018-01-05T12:46:31.609Z,340
2018-01-05T12:47:41.759Z,340
2018-01-05T12:48:51.908Z,355
2018-01-05T12:50:02.112Z,340
2018-01-05T12:51:12.350Z,295
2018-01-05T12:52:22.533Z,260
2018-01-05T12:53:32.722Z,225
2018-01-05T12:54:42.946Z,210
2018-01-05T12:55:53.121Z,215
2018-01-05T12:57:03.322Z,235
2018-01-05T12:58:13.491Z,250
2018-01-05T12:59:23.722Z,265
2018-01-05T13:00:34.052Z,270
2018-01-05T13:01:44.323Z,260
2018-01-05T13:02:54.661Z,250
2018-01-05T13:04:04.827Z,250
2018-01-05T13:05:15.056Z,265
2018-01-05T13:06:25.241Z,265
2018-01-05T13:07:35.377Z,240
2018-01-05T13:08:45.541Z,225
2018-01-05T13:09:55.751Z,230
2018-01-05T13:11:06.027Z,220
2018-01-05T13:12:16.277Z,215
2018-01-05T13:13:26.489Z,205
2018-01-05T13:14:36.766Z,200
2018-01-05T13:15:46.935Z,200
2018-01-05T13:16:57.102Z,215
2018-01-05T13:18:07.323Z,240
2018-01-05T13:19:17.494Z,255
2018-01-05T13:20:27.716Z,265
2018-01-05T13:21:37.973Z,235
2018-01-05T13:22:47.982Z,210
2018-01-05T13:23:58.235Z,200
2018-01-05T13:25:08.118Z,215
2018-01-05T13:26:18.343Z,220
2018-01-05T13:27:28.484Z,220
2018-01-05T13:28:38.399Z,230
2018-01-05T13:29:48.731Z,230
2018-01-05T13:30:58.871Z,220
2018-01-05T13:32:08.999Z,215
2018-01-05T13:33:19.334Z,230
2018-01-05T13:34:29.516Z,235
2018-01-05T13:35:39.662Z,240
2018-01-05T13:36:49.858Z,225
2018-01-05T13:38:00.013Z,190
2018-01-05T13:39:09.938Z,180
2018-01-05T13:40:20.099Z,175
2018-01-05T13:41:30.340Z,175
2018-01-05T13:42:40.541Z,175
2018-01-05T13:43:50.729Z,165
2018-01-05T13:45:00.906Z,155
2018-01-05T13:46:11.069Z,145
2018-01-05T13:47:21.216Z,135
2018-01-05T13:48:31.354Z,130
2018-01-05T13:49:41.512Z,140
2018-01-05T13:50:51.405Z,140
2018-01-05T13:52:01.552Z,145
2018-01-05T13:53:11.460Z,145
2018-01-05T13:54:21.717Z,145
2018-01-05T13:55:31.503Z,155
2018-01-05T13:56:41.734Z,160
2018-01-05T13:57:51.942Z,155
2018-01-05T13:59:02.233Z,155
2018-01-05T14:00:12.534Z,160
2018-01-05T14:01:22.772Z,160
2018-01-05T14:02:32.987Z,145
2018-01-05T14:03:43.144Z,140
2018-01-05T14:04:53.320Z,140
2018-01-05T14:06:03.471Z,135
2018-01-05T14:07:13.721Z,130
2018-01-05T14:08:23.513Z,135
2018-01-05T14:09:33.708Z,120
2018-01-05T14:10:43.611Z,100
2018-01-05T14:11:53.742Z,100
2018-01-05T14:13:03.880Z,105
2018-01-05T14:14:14.175Z,120
2018-01-05T14:15:24.359Z,135
2018-01-05T14:16:34.636Z,130
2018-01-05T14:17:44.841Z,120
2018-01-05T14:18:54.987Z,110
2018-01-05T14:20:05.207Z,95
2018-01-05T14:21:15.406Z,80
2018-01-05T14:22:25.653Z,65
2018-01-05T14:23:36.038Z,60
2018-01-05T14:24:46.207Z,60
2018-01-05T14:25:56.422Z,60
2018-01-05T14:27:06.600Z,55
2018-01-05T14:28:16.853Z,55
2018-01-05T14:29:27.039Z,55
2018-01-05T14:30:37.270Z,55
2018-01-05T14:31:47.450Z,55
2018-01-05T14:32:57.333Z,60
2018-01-05T14:34:07.500Z,50
2018-01-05T14:35:17.694Z,40
2018-01-05T14:36:27.898Z,35
2018-01-05T14:37:38.053Z,35
2018-01-05T14:38:49.215Z,30
2018-01-05T14:39:59.382Z,30
2018-01-05T14:41:09.535Z,30
2018-01-05T14:42:19.792Z,25
2018-01-05T14:43:30.019Z,25
2018-01-05T14:44:40.445Z,25
2018-01-05T14:45:50.591Z,25
2018-01-05T14:47:01.749Z,25
2018-01-05T14:48:11.970Z,25
2018-01-05T14:49:22.247Z,25
2018-01-05T14:50:32.424Z,25
2018-01-05T14:51:42.555Z,25
2018-01-05T14:52:52.735Z,20
2018-01-05T14:54:02.890Z,20
2018-01-05T14:55:13.117Z,20
2018-01-05T14:56:23.311Z,20
2018-01-05T14:57:33.460Z,20
2018-01-05T14:58:43.599Z,15
2018-01-05T14:59:53.500Z,15
2018-01-05T15:01:03.702Z,15
2018-01-05T15:02:13.604Z,15
2018-01-05T15:03:23.846Z,15
2018-01-05T15:04:34.136Z,15
2018-01-05T15:05:44.047Z,15
2018-01-05T15:06:54.241Z,15
2018-01-05T15:08:04.380Z,15
2018-01-05T15:09:14.738Z,15
2018-01-05T15:10:24.933Z,10
2018-01-05T15:11:35.104Z,10
2018-01-05T15:12:45.319Z,10
2018-01-05T15:13:55.489Z,10
2018-01-05T15:15:05.678Z,10
2018-01-05T15:16:16.027Z,10
2018-01-05T15:17:26.205Z,5
2018-01-05T15:18:36.338Z,5
2018-01-05T15:19:46.662Z,5
2018-01-05T15:20:56.930Z,5
2018-01-05T15:22:07.188Z,5
2018-01-05T15:23:17.353Z,5
2018-01-05T15:24:27.546Z,5
2018-01-05T15:25:37.696Z,5
2018-01-05T15:26:47.880Z,0
2018-01-05T15:27:58.035Z,0
2018-01-05T15:29:08.199Z,0
2018-01-05T15:30:18.341Z,0
2018-01-05T15:31:28.531Z,0
2018-01-05T15:32:38.698Z,0
2018-01-05T15:33:48.873Z,0
2018-01-05T15:34:59.104Z,0
2018-01-05T15:36:09.318Z,0
2018-01-05T15:37:19.514Z,0
2018-01-05T15:38:29.681Z,0
2018-01-05T15:39:39.863Z,0
2018-01-05T15:40:50.038Z,0
2018-01-05T15:42:00.232Z,0
2018-01-05T15:43:10.495Z,0
2018-01-05T15:44:20.429Z,0
2018-01-05T15:45:30.662Z,0
2018-01-05T15:46:40.881Z,0
2018-01-05T15:47:51.027Z,0
2018-01-05T15:49:01.192Z,0
2018-01-05T15:50:11.391Z,0
2018-01-05T15:51:21.577Z,0
2018-01-05T15:52:31.870Z,0
2018-01-05T15:53:42.078Z,0
2018-01-05T15:54:52.236Z,0
2018-01-05T15:56:02.427Z,0
2018-01-05T15:57:12.678Z,0
2018-01-05T15:58:22.947Z,0
2018-01-05T15:59:33.234Z,0
2018-01-05T16:00:43.510Z,0
2018-01-05T16:01:53.341Z,0
2018-01-05T16:03:03.538Z,0
2018-01-05T16:04:13.720Z,0
2018-01-05T16:05:23.881Z,0
2018-01-05T16:06:34.020Z,0
2018-01-05T16:07:44.176Z,0
2018-01-05T16:08:54.456Z,0
2018-01-05T16:10:04.615Z,0
2018-01-05T16:11:15.822Z,0
2018-01-05T16:12:25.803Z,0
2018-01-05T16:13:36.008Z,0
2018-01-05T16:14:46.159Z,0
2018-01-05T16:15:56.363Z,0
2018-01-05T16:17:06.539Z,0
2018-01-05T16:18:16.727Z,0
2018-01-05T16:19:26.988Z,0
2018-01-05T16:20:37.203Z,0
2018-01-05T16:21:47.388Z,0
2018-01-05T16:22:57.593Z,0
2018-01-05T16:24:08.839Z,0
2018-01-05T16:25:19.045Z,0
2018-01-05T16:26:29.230Z,0
2018-01-05T16:27:39.445Z,0
2018-01-05T16:28:49.646Z,0
2018-01-05T16:29:59.568Z,0
2018-01-05T16:31:09.230Z,0
2018-01-05T16:32:19.393Z,0
2018-01-05T16:33:29.591Z,0
2018-01-05T16:34:39.763Z,0
2018-01-05T16:35:50.032Z,0
2018-01-05T16:36:59.973Z,0
2018-01-05T16:38:10.139Z,0
2018-01-05T16:39:20.289Z,0
2018-01-05T16:40:30.504Z,0
2018-01-05T16:41:40.711Z,0
2018-01-05T16:42:50.929Z,0
2018-01-05T16:44:01.103Z,0
2018-01-05T16:45:11.342Z,0